Dodge City Rgnl Information

FAA: DDC - ICAO: KDDC

Dodge City Rgnl (Airport) Location

State Kansas
County Ford
City Dodge City
Dodge City Rgnl (Airport) is 3 miles east of Dodge City, KS.
Latitude 37-45-47.2000N
Longitude 099-57-55.5000W
Elevation 2,595ft

Dodge City Rgnl METARs

METAR KDDC 262152Z AUTO 17017KT 9SM CLR M03/M07 A3008 RMK AO2 SLP215 T10281067
Altimeter 30.08"
Temperature -2.8°C (27.0°F)
Wind 170° at 17KT
Clouds Skies are clear.
Visibility 9.0mi
Time observed: 2022-01-26T21:52:00Z

Dodge City Rgnl (Airport) Details

Status Operational
Activation April 1940
Ownership Public
Usage Public
Chart WICHITA
ATC on-site No
Beacon schedule sunset-sunrise
Beacon color clear green

Dodge City Rgnl (Airport) Contacts

Owner CITY OF DODGE CITY
Owner address PO BOX 880, DODGE CITY, KS 67801
Owner phone 620-225-8100
Manager LORI REXWINKLE, CEO
Manager address 1400 W 4TH ST, COFFEYVILLE, KS 67337
Manager phone 620-251-1200

Dodge City Rgnl Radio Frequencies

Dodge City Rgnl (Airport) Radio Frequencies

UNICOM 122.7
Common traffic advisory frequency (CTAF) 122.7